New Prague, Minnesota
Current Conditions -  °F | °C
As of 7:06 PM on Sunday 23 Nov 2014 (Local Time) from KLVN Reporting Station
Overcast Overcast  
Wind Chill: 29°   Ceiling: 3700
Heat Index: 37°   Visibility: 10mi
Dew Point: 36°   Wind: 13mph
Humidity: 93%   Direction: 300°WNW
Pressure: 29.37"   Gusts: NA
Location:  44.54°N, 93.58°W
Report Text: KLVN 240106Z AUTO 30011KT 10SM OVC037 03/02 A2937 RMK AO2
Loading
Personal Weather Stations






























Interactive Weather Map New forecast layout! Learn more

10-Day Weather Forecast

Advertisements
Track Severe Weather on mobile